Impacts METAR Board
IDs:

KCLE - Cleveland/Hopkins In, OH, US

Updated at: 1900 UTC 21 Jun 2018
Potential Impact None Slight Moderate High
Time 21/07Z 21/08Z 21/09Z 21/10Z 21/11Z 21/12Z 21/13Z 21/14Z 21/15Z 21/16Z 21/17Z 21/18Z 21/19Z
Temp62 61 60 60 61 65 70 72 75 77 79 77 78
Dewpt58 58 58 58 59 61 60 57 59 56 60 63 62
Altim29.87 29.87 29.86 29.86 29.88 29.88 29.89 29.89 29.88 29.88 29.87 29.86 29.85
VIS10 10 10 10 7 10 10 10 10 10 10 10 10
CIG27 -- -- -- -- -- -- -- -- 250 250 250 220
CoverBKNSCTSCTFEWSCTSCTSCTSCTSCTBKNBKNBKNBKN
FltCatMVFRVFRVFRVFRVFRVFRVFRVFRVFRVFRVFRVFRVFR
WX--------------------------
WDir2600002200108050130303020
WSpd3 0 0 0 3 0 6 6 3 8 11 10 12
WGst-- -- -- -- -- -- -- -- -- -- -- -- --
Raw hourly METARs
KCLE 210654Z 26003KT 10SM BKN027 BKN080 BKN250 17/14 A2987 RMK AO2 T01670144 $
KCLE 210751Z 00000KT 10SM FEW028 FEW080 SCT250 16/14 A2987 RMK AO2 SLP110 T01610144 $
KCLE 210851Z 00000KT 10SM FEW110 SCT250 16/14 A2986 RMK AO2 SLP109 T01560144 58001 $
KCLE 210951Z 00000KT 10SM FEW150 FEW250 16/14 A2986 RMK AO2 SLP108 T01560144 $
KCLE 211051Z 22003KT 7SM FEW150 SCT250 16/15 A2988 RMK AO2 SLP116 T01610150 $
KCLE 211151Z 00000KT 10SM SCT250 18/16 A2988 RMK AO2 SLP116 70005 T01830161 10183 20150 53007 $
KCLE 211251Z 01006KT 10SM SCT250 21/16 A2989 RMK AO2 SLP117 T02110156 $
KCLE 211351Z 08006KT 10SM SCT250 22/14 A2989 RMK AO2 SLP116 T02220139 $
KCLE 211451Z 05003KT 10SM SCT250 24/15 A2988 RMK AO2 SLP113 T02390150 58001 $
KCLE 211551Z 13008KT 10SM BKN250 25/13 A2988 RMK AO2 SLP114 T02500133 $
KCLE 211651Z 03011KT 10SM BKN250 26/16 A2987 RMK AO2 SLP109 T02610156 $
KCLE 211751Z 03010KT 10SM FEW035 FEW160 BKN250 25/17 A2986 RMK AO2 SLP107 T02500172 10261 20183 58006 $
KCLE 211851Z 02012KT 10SM FEW035 FEW160 BKN220 26/17 A2985 RMK AO2 SLP102 T02560167 $



Page loaded:  19:47 UTC  |   12:47 PM Pacific  |   01:47 PM Mountain  |   02:47 PM Central  |   03:47 PM Eastern

 

ADVISORIES

FORECASTS

FORECASTS

OBSERVATIONS

USER TOOLS

ABOUT US